PWSweather.com
Personal Weather Stations
Station Observations
KTXROWLE6
Ravens Nest, Rowlett, TX 75089

Ravens NestRowlett, TX 75089

Lat: 32.93105, Lon: -96.57368

Elevation: 556

Station Type: Davis Vantage Pro2 6152

http://rowlett.ws

High Low Average
Temperature 64.8°F18.2°F 58.7°F14.8°F 61.0°F16.1°F
Dew Point 60.5°F15.8°F 56.6°F13.7°F 58.4°F14.7°F
Winds 16.0 mph ESE25.7 mph ESE Calm Calm 4.7 mph 7.6 mph
Wind Gusts 18.0 mph29.0 mph -- 9.4 mph15.1 mph
Humidity 97% 83% 91%
Pressure 30.13 in1020.30 in 29.70 in1005.80 in -
Precipitation 2.88 in73.20 in - -
Hour Temp Dew Point Humidity Winds Wind Gusts Pressure Precip Precip Rate Daily Precip Total
12:00 AM 60.8°F16.0°C 59.0°F15.0°C 94% 7.0 mph ESE11.3 kmh ESE 16.0 mph25.7 kmh 30.12 in1020.0 mb 0.00 in0.0 mm 0.00 in/hr0.0 mm/hr 0.00 in0.0 mm
12:05 AM 60.8°F16.0°C 58.7°F14.8°C 93% 8.0 mph SE12.9 kmh SE 13.0 mph20.9 kmh 30.12 in1020.0 mb 0.00 in0.0 mm 0.00 in/hr0.0 mm/hr 0.00 in0.0 mm
12:10 AM 60.8°F16.0°C 58.7°F14.8°C 93% 7.0 mph SE11.3 kmh SE 15.0 mph24.1 kmh 30.13 in1020.3 mb 0.00 in0.0 mm 0.00 in/hr0.0 mm/hr 0.00 in0.0 mm
12:15 AM 60.9°F16.1°C 58.5°F14.7°C 92% 8.0 mph SE12.9 kmh SE 13.0 mph20.9 kmh 30.13 in1020.3 mb 0.00 in0.0 mm 0.00 in/hr0.0 mm/hr 0.00 in0.0 mm
12:20 AM 61.0°F16.1°C 58.6°F14.8°C 92% 7.0 mph SE11.3 kmh SE 12.0 mph19.3 kmh 30.13 in1020.3 mb 0.00 in0.0 mm 0.00 in/hr0.0 mm/hr 0.00 in0.0 mm
12:25 AM 61.0°F16.1°C 58.6°F14.8°C 92% 8.0 mph SSE12.9 kmh SSE 13.0 mph20.9 kmh 30.13 in1020.3 mb 0.00 in0.0 mm 0.00 in/hr0.0 mm/hr 0.00 in0.0 mm
12:30 AM 60.8°F16.0°C 58.4°F14.7°C 92% 5.0 mph SE8.0 kmh SE 13.0 mph20.9 kmh 30.13 in1020.3 mb 0.00 in0.0 mm 0.00 in/hr0.0 mm/hr 0.00 in0.0 mm
12:35 AM 60.7°F15.9°C 58.3°F14.6°C 92% 8.0 mph SE12.9 kmh SE 12.0 mph19.3 kmh 30.12 in1020.0 mb 0.00 in0.0 mm 0.00 in/hr0.0 mm/hr 0.00 in0.0 mm
12:40 AM 60.7°F15.9°C 58.0°F14.4°C 91% 9.0 mph SE14.5 kmh SE 13.0 mph20.9 kmh 30.13 in1020.3 mb 0.00 in0.0 mm 0.00 in/hr0.0 mm/hr 0.00 in0.0 mm
12:45 AM 60.7°F15.9°C 58.0°F14.4°C 91% 16.0 mph ESE25.7 kmh ESE 16.0 mph25.7 kmh 30.12 in1020.0 mb 0.00 in0.0 mm 0.00 in/hr0.0 mm/hr 0.00 in0.0 mm
12:50 AM 60.7°F15.9°C 58.0°F14.4°C 91% 12.0 mph SE19.3 kmh SE 15.0 mph24.1 kmh 30.12 in1020.0 mb 0.00 in0.0 mm 0.00 in/hr0.0 mm/hr 0.00 in0.0 mm
12:55 AM 60.6°F15.9°C 57.9°F14.4°C 91% 10.0 mph SE16.1 kmh SE 18.0 mph29.0 kmh 30.12 in1020.0 mb 0.01 in0.3 mm 0.12 in/hr3.0 mm/hr 0.01 in0.3 mm
01:00 AM 60.4°F15.8°C 58.0°F14.4°C 92% 7.0 mph S11.3 kmh S 18.0 mph29.0 kmh 30.11 in1019.6 mb 0.01 in0.3 mm 0.00 in/hr0.0 mm/hr 0.01 in0.3 mm
01:05 AM 60.3°F15.7°C 58.2°F14.6°C 93% 14.0 mph SSE22.5 kmh SSE 16.0 mph25.7 kmh 30.12 in1020.0 mb 0.02 in0.5 mm 0.12 in/hr3.0 mm/hr 0.02 in0.5 mm
01:10 AM 60.2°F15.7°C 58.1°F14.5°C 93% 7.0 mph SE11.3 kmh SE 14.0 mph22.5 kmh 30.12 in1020.0 mb 0.02 in0.5 mm 0.00 in/hr0.0 mm/hr 0.02 in0.5 mm
01:15 AM 60.2°F15.7°C 58.1°F14.5°C 93% 3.0 mph SE4.8 kmh SE 12.0 mph19.3 kmh 30.12 in1020.0 mb 0.02 in0.5 mm 0.00 in/hr0.0 mm/hr 0.02 in0.5 mm
01:20 AM 60.2°F15.7°C 58.1°F14.5°C 93% 8.0 mph SE12.9 kmh SE 14.0 mph22.5 kmh 30.13 in1020.3 mb 0.02 in0.5 mm 0.00 in/hr0.0 mm/hr 0.02 in0.5 mm
01:25 AM 60.0°F15.6°C 57.9°F14.4°C 93% 4.0 mph SE6.4 kmh SE 10.0 mph16.1 kmh 30.12 in1020.0 mb 0.02 in0.5 mm 0.00 in/hr0.0 mm/hr 0.02 in0.5 mm
01:30 AM 60.0°F15.6°C 57.9°F14.4°C 93% 3.0 mph SSE4.8 kmh SSE 14.0 mph22.5 kmh 30.12 in1020.0 mb 0.02 in0.5 mm 0.00 in/hr0.0 mm/hr 0.02 in0.5 mm
01:35 AM 59.9°F15.5°C 57.8°F14.3°C 93% 6.0 mph SSE9.7 kmh SSE 13.0 mph20.9 kmh 30.12 in1020.0 mb 0.02 in0.5 mm 0.00 in/hr0.0 mm/hr 0.02 in0.5 mm
01:40 AM 59.9°F15.5°C 57.8°F14.3°C 93% 4.0 mph SE6.4 kmh SE 15.0 mph24.1 kmh 30.12 in1020.0 mb 0.02 in0.5 mm 0.00 in/hr0.0 mm/hr 0.02 in0.5 mm
01:45 AM 59.8°F15.4°C 57.7°F14.3°C 93% 9.0 mph SE14.5 kmh SE 14.0 mph22.5 kmh 30.12 in1020.0 mb 0.02 in0.5 mm 0.00 in/hr0.0 mm/hr 0.02 in0.5 mm
01:50 AM 59.8°F15.4°C 57.7°F14.3°C 93% 5.0 mph SE8.0 kmh SE 11.0 mph17.7 kmh 30.12 in1020.0 mb 0.02 in0.5 mm 0.00 in/hr0.0 mm/hr 0.02 in0.5 mm
01:55 AM 59.7°F15.4°C 57.6°F14.2°C 93% 7.0 mph SE11.3 kmh SE 11.0 mph17.7 kmh 30.12 in1020.0 mb 0.01 in0.3 mm 0.00 in/hr0.0 mm/hr 0.02 in0.5 mm
02:00 AM 59.8°F15.4°C 58.0°F14.4°C 94% 4.0 mph SE6.4 kmh SE 14.0 mph22.5 kmh 30.11 in1019.6 mb 0.01 in0.3 mm 0.00 in/hr0.0 mm/hr 0.02 in0.5 mm
02:05 AM 59.8°F15.4°C 58.0°F14.4°C 94% 2.0 mph SE3.2 kmh SE 11.0 mph17.7 kmh 30.11 in1019.6 mb 0.00 in0.0 mm 0.00 in/hr0.0 mm/hr 0.02 in0.5 mm
02:10 AM 59.7°F15.4°C 57.9°F14.4°C 94% 3.0 mph SE4.8 kmh SE 9.0 mph14.5 kmh 30.11 in1019.6 mb 0.00 in0.0 mm 0.00 in/hr0.0 mm/hr 0.02 in0.5 mm
02:15 AM 59.6°F15.3°C 57.8°F14.3°C 94% 5.0 mph SE8.0 kmh SE 9.0 mph14.5 kmh 30.11 in1019.6 mb 0.00 in0.0 mm 0.00 in/hr0.0 mm/hr 0.02 in0.5 mm
02:20 AM 59.5°F15.3°C 57.7°F14.3°C 94% 4.0 mph SE6.4 kmh SE 12.0 mph19.3 kmh 30.11 in1019.6 mb 0.00 in0.0 mm 0.00 in/hr0.0 mm/hr 0.02 in0.5 mm
02:25 AM 59.5°F15.3°C 57.7°F14.3°C 94% 7.0 mph SE11.3 kmh SE 11.0 mph17.7 kmh 30.11 in1019.6 mb 0.00 in0.0 mm 0.00 in/hr0.0 mm/hr 0.02 in0.5 mm
02:30 AM 59.5°F15.3°C 57.7°F14.3°C 94% 5.0 mph SE8.0 kmh SE 12.0 mph19.3 kmh 30.11 in1019.6 mb 0.00 in0.0 mm 0.00 in/hr0.0 mm/hr 0.02 in0.5 mm
02:35 AM 59.4°F15.2°C 57.6°F14.2°C 94% 4.0 mph SE6.4 kmh SE 12.0 mph19.3 kmh 30.11 in1019.6 mb 0.00 in0.0 mm 0.00 in/hr0.0 mm/hr 0.02 in0.5 mm
02:40 AM 59.4°F15.2°C 57.6°F14.2°C 94% 4.0 mph SE6.4 kmh SE 12.0 mph19.3 kmh 30.11 in1019.6 mb 0.00 in0.0 mm 0.00 in/hr0.0 mm/hr 0.02 in0.5 mm
02:45 AM 59.4°F15.2°C 57.6°F14.2°C 94% 3.0 mph SE4.8 kmh SE 10.0 mph16.1 kmh 30.11 in1019.6 mb 0.00 in0.0 mm 0.00 in/hr0.0 mm/hr 0.02 in0.5 mm
02:50 AM 59.4°F15.2°C 57.6°F14.2°C 94% 7.0 mph SE11.3 kmh SE 10.0 mph16.1 kmh 30.11 in1019.6 mb 0.00 in0.0 mm 0.00 in/hr0.0 mm/hr 0.02 in0.5 mm
02:55 AM 59.4°F15.2°C 57.6°F14.2°C 94% 5.0 mph SSE8.0 kmh SSE 11.0 mph17.7 kmh 30.11 in1019.6 mb 0.00 in0.0 mm 0.00 in/hr0.0 mm/hr 0.02 in0.5 mm
03:00 AM 59.5°F15.3°C 57.7°F14.3°C 94% 2.0 mph SE3.2 kmh SE 10.0 mph16.1 kmh 30.11 in1019.6 mb 0.00 in0.0 mm 0.00 in/hr0.0 mm/hr 0.02 in0.5 mm
03:05 AM 59.5°F15.3°C 57.7°F14.3°C 94% 6.0 mph SE9.7 kmh SE 12.0 mph19.3 kmh 30.10 in1019.3 mb 0.00 in0.0 mm 0.00 in/hr0.0 mm/hr 0.02 in0.5 mm
03:10 AM 59.5°F15.3°C 57.7°F14.3°C 94% 5.0 mph SE8.0 kmh SE 9.0 mph14.5 kmh 30.11 in1019.6 mb 0.00 in0.0 mm 0.00 in/hr0.0 mm/hr 0.02 in0.5 mm
03:15 AM 59.4°F15.2°C 57.6°F14.2°C 94% 6.0 mph SE9.7 kmh SE 12.0 mph19.3 kmh 30.11 in1019.6 mb 0.00 in0.0 mm 0.00 in/hr0.0 mm/hr 0.02 in0.5 mm
03:20 AM 59.4°F15.2°C 57.6°F14.2°C 94% 7.0 mph ESE11.3 kmh ESE 14.0 mph22.5 kmh 30.10 in1019.3 mb 0.00 in0.0 mm 0.00 in/hr0.0 mm/hr 0.02 in0.5 mm
03:25 AM 59.4°F15.2°C 57.6°F14.2°C 94% 3.0 mph SE4.8 kmh SE 12.0 mph19.3 kmh 30.10 in1019.3 mb 0.00 in0.0 mm 0.00 in/hr0.0 mm/hr 0.02 in0.5 mm
03:30 AM 59.5°F15.3°C 57.4°F14.1°C 93% 4.0 mph SSE6.4 kmh SSE 10.0 mph16.1 kmh 30.10 in1019.3 mb 0.00 in0.0 mm 0.00 in/hr0.0 mm/hr 0.02 in0.5 mm
03:35 AM 59.4°F15.2°C 57.3°F14.1°C 93% 4.0 mph SSE6.4 kmh SSE 9.0 mph14.5 kmh 30.10 in1019.3 mb 0.00 in0.0 mm 0.00 in/hr0.0 mm/hr 0.02 in0.5 mm
03:40 AM 59.4°F15.2°C 57.3°F14.1°C 93% 5.0 mph SE8.0 kmh SE 9.0 mph14.5 kmh 30.10 in1019.3 mb 0.00 in0.0 mm 0.00 in/hr0.0 mm/hr 0.02 in0.5 mm
03:45 AM 59.4°F15.2°C 57.3°F14.1°C 93% 6.0 mph SE9.7 kmh SE 11.0 mph17.7 kmh 30.10 in1019.3 mb 0.00 in0.0 mm 0.00 in/hr0.0 mm/hr 0.02 in0.5 mm
03:50 AM 59.5°F15.3°C 57.4°F14.1°C 93% 9.0 mph SE14.5 kmh SE 9.0 mph14.5 kmh 30.10 in1019.3 mb 0.00 in0.0 mm 0.00 in/hr0.0 mm/hr 0.02 in0.5 mm
03:55 AM 59.5°F15.3°C 57.4°F14.1°C 93% 2.0 mph SE3.2 kmh SE 9.0 mph14.5 kmh 30.10 in1019.3 mb 0.00 in0.0 mm 0.00 in/hr0.0 mm/hr 0.02 in0.5 mm
04:00 AM 59.5°F15.3°C 57.4°F14.1°C 93% 4.0 mph SE6.4 kmh SE 9.0 mph14.5 kmh 30.10 in1019.3 mb 0.00 in0.0 mm 0.00 in/hr0.0 mm/hr 0.02 in0.5 mm
04:05 AM 59.5°F15.3°C 57.4°F14.1°C 93% 9.0 mph ESE14.5 kmh ESE 12.0 mph19.3 kmh 30.10 in1019.3 mb 0.00 in0.0 mm 0.00 in/hr0.0 mm/hr 0.02 in0.5 mm
04:10 AM 59.5°F15.3°C 57.4°F14.1°C 93% 6.0 mph SE9.7 kmh SE 10.0 mph16.1 kmh 30.10 in1019.3 mb 0.00 in0.0 mm 0.00 in/hr0.0 mm/hr 0.02 in0.5 mm
04:15 AM 59.4°F15.2°C 57.3°F14.1°C 93% 7.0 mph ESE11.3 kmh ESE 11.0 mph17.7 kmh 30.10 in1019.3 mb 0.00 in0.0 mm 0.00 in/hr0.0 mm/hr 0.02 in0.5 mm
04:20 AM 59.4°F15.2°C 57.3°F14.1°C 93% 7.0 mph SE11.3 kmh SE 10.0 mph16.1 kmh 30.10 in1019.3 mb 0.00 in0.0 mm 0.00 in/hr0.0 mm/hr 0.02 in0.5 mm
04:25 AM 59.3°F15.2°C 57.2°F14.0°C 93% 7.0 mph SSE11.3 kmh SSE 12.0 mph19.3 kmh 30.09 in1019.0 mb 0.00 in0.0 mm 0.00 in/hr0.0 mm/hr 0.02 in0.5 mm
04:30 AM 59.3°F15.2°C 57.2°F14.0°C 93% 7.0 mph SE11.3 kmh SE 11.0 mph17.7 kmh 30.09 in1019.0 mb 0.00 in0.0 mm 0.00 in/hr0.0 mm/hr 0.02 in0.5 mm
04:35 AM 59.2°F15.1°C 57.1°F13.9°C 93% 3.0 mph SE4.8 kmh SE 8.0 mph12.9 kmh 30.09 in1019.0 mb 0.00 in0.0 mm 0.00 in/hr0.0 mm/hr 0.02 in0.5 mm
04:40 AM 59.1°F15.1°C 57.0°F13.9°C 93% 8.0 mph ESE12.9 kmh ESE 9.0 mph14.5 kmh 30.09 in1019.0 mb 0.00 in0.0 mm 0.00 in/hr0.0 mm/hr 0.02 in0.5 mm
04:45 AM 59.1°F15.1°C 57.0°F13.9°C 93% 6.0 mph SSE9.7 kmh SSE 11.0 mph17.7 kmh 30.09 in1019.0 mb 0.00 in0.0 mm 0.00 in/hr0.0 mm/hr 0.02 in0.5 mm
04:50 AM 59.0°F15.0°C 56.9°F13.8°C 93% 7.0 mph SE11.3 kmh SE 10.0 mph16.1 kmh 30.08 in1018.6 mb 0.00 in0.0 mm 0.00 in/hr0.0 mm/hr 0.02 in0.5 mm
04:55 AM 59.0°F15.0°C 56.9°F13.8°C 93% 7.0 mph SE11.3 kmh SE 13.0 mph20.9 kmh 30.08 in1018.6 mb 0.00 in0.0 mm 0.00 in/hr0.0 mm/hr 0.02 in0.5 mm
05:00 AM 58.9°F14.9°C 57.1°F13.9°C 94% 9.0 mph SE14.5 kmh SE 11.0 mph17.7 kmh 30.08 in1018.6 mb 0.00 in0.0 mm 0.00 in/hr0.0 mm/hr 0.02 in0.5 mm
05:05 AM 58.8°F14.9°C 57.0°F13.9°C 94% 7.0 mph SE11.3 kmh SE 10.0 mph16.1 kmh 30.08 in1018.6 mb 0.00 in0.0 mm 0.00 in/hr0.0 mm/hr 0.02 in0.5 mm
05:10 AM 58.7°F14.8°C 56.9°F13.8°C 94% 9.0 mph SSE14.5 kmh SSE 9.0 mph14.5 kmh 30.07 in1018.3 mb 0.00 in0.0 mm 0.00 in/hr0.0 mm/hr 0.02 in0.5 mm
05:15 AM 58.7°F14.8°C 56.9°F13.8°C 94% 5.0 mph ESE8.0 kmh ESE 11.0 mph17.7 kmh 30.07 in1018.3 mb 0.00 in0.0 mm 0.00 in/hr0.0 mm/hr 0.02 in0.5 mm
05:20 AM 58.8°F14.9°C 57.0°F13.9°C 94% 3.0 mph SE4.8 kmh SE 11.0 mph17.7 kmh 30.07 in1018.3 mb 0.00 in0.0 mm 0.00 in/hr0.0 mm/hr 0.02 in0.5 mm
05:25 AM 58.9°F14.9°C 57.1°F13.9°C 94% 9.0 mph SE14.5 kmh SE 11.0 mph17.7 kmh 30.08 in1018.6 mb 0.00 in0.0 mm 0.00 in/hr0.0 mm/hr 0.02 in0.5 mm
05:30 AM 58.9°F14.9°C 57.1°F13.9°C 94% 6.0 mph SE9.7 kmh SE 11.0 mph17.7 kmh 30.07 in1018.3 mb 0.00 in0.0 mm 0.00 in/hr0.0 mm/hr 0.02 in0.5 mm
05:35 AM 59.0°F15.0°C 56.9°F13.8°C 93% 5.0 mph SE8.0 kmh SE 11.0 mph17.7 kmh 30.08 in1018.6 mb 0.00 in0.0 mm 0.00 in/hr0.0 mm/hr 0.02 in0.5 mm
05:40 AM 59.0°F15.0°C 56.9°F13.8°C 93% 5.0 mph SE8.0 kmh SE 12.0 mph19.3 kmh 30.08 in1018.6 mb 0.00 in0.0 mm 0.00 in/hr0.0 mm/hr 0.02 in0.5 mm
05:45 AM 59.0°F15.0°C 56.9°F13.8°C 93% 9.0 mph ESE14.5 kmh ESE 11.0 mph17.7 kmh 30.08 in1018.6 mb 0.00 in0.0 mm 0.00 in/hr0.0 mm/hr 0.02 in0.5 mm
05:50 AM 59.1°F15.1°C 57.0°F13.9°C 93% 6.0 mph SE9.7 kmh SE 11.0 mph17.7 kmh 30.08 in1018.6 mb 0.00 in0.0 mm 0.00 in/hr0.0 mm/hr 0.02 in0.5 mm
05:55 AM 59.1°F15.1°C 56.7°F13.7°C 92% 2.0 mph SE3.2 kmh SE 14.0 mph22.5 kmh 30.08 in1018.6 mb 0.00 in0.0 mm 0.00 in/hr0.0 mm/hr 0.02 in0.5 mm
06:00 AM 59.0°F15.0°C 56.6°F13.7°C 92% 7.0 mph ESE11.3 kmh ESE 11.0 mph17.7 kmh 30.08 in1018.6 mb 0.00 in0.0 mm 0.00 in/hr0.0 mm/hr 0.02 in0.5 mm
06:05 AM 59.1°F15.1°C 56.7°F13.7°C 92% 6.0 mph SSE9.7 kmh SSE 12.0 mph19.3 kmh 30.08 in1018.6 mb 0.00 in0.0 mm 0.00 in/hr0.0 mm/hr 0.02 in0.5 mm
06:10 AM 59.1°F15.1°C 56.7°F13.7°C 92% 7.0 mph SE11.3 kmh SE 10.0 mph16.1 kmh 30.08 in1018.6 mb 0.00 in0.0 mm 0.00 in/hr0.0 mm/hr 0.02 in0.5 mm
06:15 AM 59.2°F15.1°C 56.8°F13.8°C 92% 1.0 mph ESE1.6 kmh ESE 14.0 mph22.5 kmh 30.08 in1018.6 mb 0.00 in0.0 mm 0.00 in/hr0.0 mm/hr 0.02 in0.5 mm
06:20 AM 59.3°F15.2°C 56.9°F13.8°C 92% 8.0 mph SE12.9 kmh SE 15.0 mph24.1 kmh 30.08 in1018.6 mb 0.00 in0.0 mm 0.00 in/hr0.0 mm/hr 0.02 in0.5 mm
06:25 AM 59.4°F15.2°C 57.0°F13.9°C 92% 5.0 mph SE8.0 kmh SE 11.0 mph17.7 kmh 30.08 in1018.6 mb 0.00 in0.0 mm 0.00 in/hr0.0 mm/hr 0.02 in0.5 mm
06:30 AM 59.4°F15.2°C 57.0°F13.9°C 92% 6.0 mph SSE9.7 kmh SSE 11.0 mph17.7 kmh 30.08 in1018.6 mb 0.00 in0.0 mm 0.00 in/hr0.0 mm/hr 0.02 in0.5 mm
06:35 AM 59.4°F15.2°C 57.0°F13.9°C 92% 6.0 mph SE9.7 kmh SE 11.0 mph17.7 kmh 30.09 in1019.0 mb 0.00 in0.0 mm 0.00 in/hr0.0 mm/hr 0.02 in0.5 mm
06:40 AM 59.4°F15.2°C 57.0°F13.9°C 92% 4.0 mph SE6.4 kmh SE 14.0 mph22.5 kmh 30.09 in1019.0 mb 0.00 in0.0 mm 0.00 in/hr0.0 mm/hr 0.02 in0.5 mm
06:45 AM 59.4°F15.2°C 56.7°F13.7°C 91% 11.0 mph SE17.7 kmh SE 14.0 mph22.5 kmh 30.08 in1018.6 mb 0.00 in0.0 mm 0.00 in/hr0.0 mm/hr 0.02 in0.5 mm
06:50 AM 59.4°F15.2°C 57.0°F13.9°C 92% 6.0 mph SE9.7 kmh SE 14.0 mph22.5 kmh 30.08 in1018.6 mb 0.00 in0.0 mm 0.00 in/hr0.0 mm/hr 0.02 in0.5 mm
06:55 AM 59.4°F15.2°C 57.0°F13.9°C 92% 4.0 mph SE6.4 kmh SE 12.0 mph19.3 kmh 30.08 in1018.6 mb 0.00 in0.0 mm 0.00 in/hr0.0 mm/hr 0.02 in0.5 mm
07:00 AM 59.4°F15.2°C 56.7°F13.7°C 91% 12.0 mph SE19.3 kmh SE 13.0 mph20.9 kmh 30.09 in1019.0 mb 0.00 in0.0 mm 0.00 in/hr0.0 mm/hr 0.02 in0.5 mm
07:05 AM 59.4°F15.2°C 56.7°F13.7°C 91% 6.0 mph SE9.7 kmh SE 12.0 mph19.3 kmh 30.09 in1019.0 mb 0.00 in0.0 mm 0.00 in/hr0.0 mm/hr 0.02 in0.5 mm
07:10 AM 59.3°F15.2°C 56.6°F13.7°C 91% 7.0 mph SE11.3 kmh SE 9.0 mph14.5 kmh 30.09 in1019.0 mb 0.00 in0.0 mm 0.00 in/hr0.0 mm/hr 0.02 in0.5 mm
07:15 AM 59.3°F15.2°C 56.6°F13.7°C 91% 6.0 mph SE9.7 kmh SE 11.0 mph17.7 kmh 30.09 in1019.0 mb 0.00 in0.0 mm 0.00 in/hr0.0 mm/hr 0.02 in0.5 mm
07:20 AM 59.3°F15.2°C 56.6°F13.7°C 91% 6.0 mph SE9.7 kmh SE 9.0 mph14.5 kmh 30.09 in1019.0 mb 0.00 in0.0 mm 0.00 in/hr0.0 mm/hr 0.02 in0.5 mm
07:25 AM 59.3°F15.2°C 56.9°F13.8°C 92% 10.0 mph SE16.1 kmh SE 12.0 mph19.3 kmh 30.09 in1019.0 mb 0.00 in0.0 mm 0.00 in/hr0.0 mm/hr 0.02 in0.5 mm
07:30 AM 59.3°F15.2°C 56.9°F13.8°C 92% 7.0 mph SE11.3 kmh SE 11.0 mph17.7 kmh 30.09 in1019.0 mb 0.00 in0.0 mm 0.00 in/hr0.0 mm/hr 0.02 in0.5 mm
07:35 AM 59.2°F15.1°C 56.8°F13.8°C 92% 5.0 mph SE8.0 kmh SE 12.0 mph19.3 kmh 30.08 in1018.6 mb 0.00 in0.0 mm 0.00 in/hr0.0 mm/hr 0.02 in0.5 mm
07:40 AM 59.3°F15.2°C 56.9°F13.8°C 92% 5.0 mph SE8.0 kmh SE 13.0 mph20.9 kmh 30.08 in1018.6 mb 0.00 in0.0 mm 0.00 in/hr0.0 mm/hr 0.02 in0.5 mm
07:45 AM 59.4°F15.2°C 57.0°F13.9°C 92% 4.0 mph ESE6.4 kmh ESE 12.0 mph19.3 kmh 30.08 in1018.6 mb 0.00 in0.0 mm 0.00 in/hr0.0 mm/hr 0.02 in0.5 mm
07:50 AM 59.4°F15.2°C 57.0°F13.9°C 92% 7.0 mph SSE11.3 kmh SSE 10.0 mph16.1 kmh 30.08 in1018.6 mb 0.00 in0.0 mm 0.00 in/hr0.0 mm/hr 0.02 in0.5 mm
07:55 AM 59.5°F15.3°C 57.1°F13.9°C 92% 6.0 mph SE9.7 kmh SE 15.0 mph24.1 kmh 30.08 in1018.6 mb 0.00 in0.0 mm 0.00 in/hr0.0 mm/hr 0.02 in0.5 mm
08:00 AM 59.6°F15.3°C 57.2°F14.0°C 92% 6.0 mph SE9.7 kmh SE 11.0 mph17.7 kmh 30.08 in1018.6 mb 0.00 in0.0 mm 0.00 in/hr0.0 mm/hr 0.02 in0.5 mm
08:05 AM 59.6°F15.3°C 56.9°F13.8°C 91% 5.0 mph SE8.0 kmh SE 13.0 mph20.9 kmh 30.08 in1018.6 mb 0.00 in0.0 mm 0.00 in/hr0.0 mm/hr 0.02 in0.5 mm
08:10 AM 59.7°F15.4°C 57.0°F13.9°C 91% 4.0 mph SE6.4 kmh SE 10.0 mph16.1 kmh 30.08 in1018.6 mb 0.00 in0.0 mm 0.00 in/hr0.0 mm/hr 0.02 in0.5 mm
08:15 AM 59.8°F15.4°C 57.1°F13.9°C 91% 5.0 mph SE8.0 kmh SE 12.0 mph19.3 kmh 30.08 in1018.6 mb 0.00 in0.0 mm 0.00 in/hr0.0 mm/hr 0.02 in0.5 mm
08:20 AM 59.8°F15.4°C 57.1°F13.9°C 91% 7.0 mph SE11.3 kmh SE 12.0 mph19.3 kmh 30.08 in1018.6 mb 0.00 in0.0 mm 0.00 in/hr0.0 mm/hr 0.02 in0.5 mm
08:25 AM 59.7°F15.4°C 57.0°F13.9°C 91% 2.0 mph SE3.2 kmh SE 10.0 mph16.1 kmh 30.08 in1018.6 mb 0.00 in0.0 mm 0.00 in/hr0.0 mm/hr 0.02 in0.5 mm
08:30 AM 59.7°F15.4°C 57.0°F13.9°C 91% 5.0 mph SE8.0 kmh SE 8.0 mph12.9 kmh 30.09 in1019.0 mb 0.00 in0.0 mm 0.00 in/hr0.0 mm/hr 0.02 in0.5 mm
08:35 AM 59.7°F15.4°C 57.0°F13.9°C 91% 3.0 mph SE4.8 kmh SE 9.0 mph14.5 kmh 30.09 in1019.0 mb 0.00 in0.0 mm 0.00 in/hr0.0 mm/hr 0.02 in0.5 mm
08:40 AM 59.8°F15.4°C 57.1°F13.9°C 91% 6.0 mph SE9.7 kmh SE 8.0 mph12.9 kmh 30.09 in1019.0 mb 0.00 in0.0 mm 0.00 in/hr0.0 mm/hr 0.02 in0.5 mm
08:45 AM 59.8°F15.4°C 56.8°F13.8°C 90% 3.0 mph SE4.8 kmh SE 12.0 mph19.3 kmh 30.09 in1019.0 mb 0.00 in0.0 mm 0.00 in/hr0.0 mm/hr 0.02 in0.5 mm
08:50 AM 59.9°F15.5°C 56.9°F13.8°C 90% 4.0 mph SE6.4 kmh SE 7.0 mph11.3 kmh 30.09 in1019.0 mb 0.00 in0.0 mm 0.00 in/hr0.0 mm/hr 0.02 in0.5 mm
08:55 AM 59.9°F15.5°C 57.2°F14.0°C 91% 5.0 mph SE8.0 kmh SE 10.0 mph16.1 kmh 30.09 in1019.0 mb 0.00 in0.0 mm 0.00 in/hr0.0 mm/hr 0.02 in0.5 mm
09:00 AM 60.0°F15.6°C 57.0°F13.9°C 90% 4.0 mph SE6.4 kmh SE 10.0 mph16.1 kmh 30.10 in1019.3 mb 0.00 in0.0 mm 0.00 in/hr0.0 mm/hr 0.02 in0.5 mm
09:05 AM 60.0°F15.6°C 57.0°F13.9°C 90% 8.0 mph SE12.9 kmh SE 10.0 mph16.1 kmh 30.09 in1019.0 mb 0.00 in0.0 mm 0.00 in/hr0.0 mm/hr 0.02 in0.5 mm
09:10 AM 60.0°F15.6°C 57.0°F13.9°C 90% 8.0 mph SE12.9 kmh SE 13.0 mph20.9 kmh 30.09 in1019.0 mb 0.00 in0.0 mm 0.00 in/hr0.0 mm/hr 0.02 in0.5 mm
09:15 AM 60.0°F15.6°C 57.0°F13.9°C 90% 4.0 mph SE6.4 kmh SE 10.0 mph16.1 kmh 30.08 in1018.6 mb 0.00 in0.0 mm 0.00 in/hr0.0 mm/hr 0.02 in0.5 mm
09:20 AM 60.0°F15.6°C 57.0°F13.9°C 90% 5.0 mph ESE8.0 kmh ESE 11.0 mph17.7 kmh 30.09 in1019.0 mb 0.00 in0.0 mm 0.00 in/hr0.0 mm/hr 0.02 in0.5 mm
09:25 AM 59.8°F15.4°C 56.8°F13.8°C 90% 8.0 mph SE12.9 kmh SE 13.0 mph20.9 kmh 30.08 in1018.6 mb 0.00 in0.0 mm 0.00 in/hr0.0 mm/hr 0.02 in0.5 mm
09:30 AM 59.8°F15.4°C 56.8°F13.8°C 90% 8.0 mph SE12.9 kmh SE 12.0 mph19.3 kmh 30.08 in1018.6 mb 0.00 in0.0 mm 0.00 in/hr0.0 mm/hr 0.02 in0.5 mm
09:35 AM 59.8°F15.4°C 56.8°F13.8°C 90% 7.0 mph SSE11.3 kmh SSE 14.0 mph22.5 kmh 30.07 in1018.3 mb 0.00 in0.0 mm 0.00 in/hr0.0 mm/hr 0.02 in0.5 mm
09:40 AM 59.9°F15.5°C 56.9°F13.8°C 90% 14.0 mph E22.5 kmh E 14.0 mph22.5 kmh 30.07 in1018.3 mb 0.00 in0.0 mm 0.00 in/hr0.0 mm/hr 0.02 in0.5 mm
09:45 AM 60.1°F15.6°C 57.1°F13.9°C 90% 4.0 mph SE6.4 kmh SE 14.0 mph22.5 kmh 30.06 in1017.9 mb 0.00 in0.0 mm 0.00 in/hr0.0 mm/hr 0.02 in0.5 mm
09:50 AM 60.3°F15.7°C 57.0°F13.9°C 89% 8.0 mph SE12.9 kmh SE 12.0 mph19.3 kmh 30.06 in1017.9 mb 0.00 in0.0 mm 0.00 in/hr0.0 mm/hr 0.02 in0.5 mm
09:55 AM 60.4°F15.8°C 57.1°F13.9°C 89% 11.0 mph SE17.7 kmh SE 11.0 mph17.7 kmh 30.06 in1017.9 mb 0.00 in0.0 mm 0.00 in/hr0.0 mm/hr 0.02 in0.5 mm
10:00 AM 60.4°F15.8°C 57.1°F13.9°C 89% 4.0 mph SSE6.4 kmh SSE 12.0 mph19.3 kmh 30.07 in1018.3 mb 0.00 in0.0 mm 0.00 in/hr0.0 mm/hr 0.02 in0.5 mm
10:05 AM 60.4°F15.8°C 57.1°F13.9°C 89% 3.0 mph SE4.8 kmh SE 10.0 mph16.1 kmh 30.07 in1018.3 mb 0.00 in0.0 mm 0.00 in/hr0.0 mm/hr 0.02 in0.5 mm
10:10 AM 60.5°F15.8°C 57.2°F14.0°C 89% 8.0 mph SE12.9 kmh SE 10.0 mph16.1 kmh 30.07 in1018.3 mb 0.00 in0.0 mm 0.00 in/hr0.0 mm/hr 0.02 in0.5 mm
10:15 AM 60.7°F15.9°C 57.4°F14.1°C 89% 6.0 mph SE9.7 kmh SE 11.0 mph17.7 kmh 30.07 in1018.3 mb 0.00 in0.0 mm 0.00 in/hr0.0 mm/hr 0.02 in0.5 mm
10:20 AM 60.8°F16.0°C 57.5°F14.2°C 89% 4.0 mph SE6.4 kmh SE 12.0 mph19.3 kmh 30.07 in1018.3 mb 0.00 in0.0 mm 0.00 in/hr0.0 mm/hr 0.02 in0.5 mm
10:25 AM 60.9°F16.1°C 57.6°F14.2°C 89% 4.0 mph SE6.4 kmh SE 8.0 mph12.9 kmh 30.07 in1018.3 mb 0.00 in0.0 mm 0.00 in/hr0.0 mm/hr 0.02 in0.5 mm
10:30 AM 60.9°F16.1°C 57.6°F14.2°C 89% 10.0 mph SE16.1 kmh SE 10.0 mph16.1 kmh 30.07 in1018.3 mb 0.00 in0.0 mm 0.00 in/hr0.0 mm/hr 0.02 in0.5 mm
10:35 AM 60.9°F16.1°C 57.3°F14.1°C 88% 4.0 mph SE6.4 kmh SE 11.0 mph17.7 kmh 30.06 in1017.9 mb 0.00 in0.0 mm 0.00 in/hr0.0 mm/hr 0.02 in0.5 mm
10:40 AM 61.1°F16.2°C 57.5°F14.2°C 88% 5.0 mph SE8.0 kmh SE 10.0 mph16.1 kmh 30.06 in1017.9 mb 0.00 in0.0 mm 0.00 in/hr0.0 mm/hr 0.02 in0.5 mm
10:45 AM 61.1°F16.2°C 57.5°F14.2°C 88% 7.0 mph SE11.3 kmh SE 10.0 mph16.1 kmh 30.06 in1017.9 mb 0.00 in0.0 mm 0.00 in/hr0.0 mm/hr 0.02 in0.5 mm
10:50 AM 61.0°F16.1°C 57.4°F14.1°C 88% 8.0 mph SSE12.9 kmh SSE 11.0 mph17.7 kmh 30.05 in1017.6 mb 0.00 in0.0 mm 0.00 in/hr0.0 mm/hr 0.02 in0.5 mm
10:55 AM 60.9°F16.1°C 57.3°F14.1°C 88% 10.0 mph SE16.1 kmh SE 13.0 mph20.9 kmh 30.05 in1017.6 mb 0.00 in0.0 mm 0.00 in/hr0.0 mm/hr 0.02 in0.5 mm
11:00 AM 60.8°F16.0°C 57.2°F14.0°C 88% 5.0 mph SE8.0 kmh SE 10.0 mph16.1 kmh 30.04 in1017.3 mb 0.00 in0.0 mm 0.00 in/hr0.0 mm/hr 0.02 in0.5 mm
11:05 AM 60.7°F15.9°C 57.1°F13.9°C 88% 5.0 mph SE8.0 kmh SE 9.0 mph14.5 kmh 30.05 in1017.6 mb 0.00 in0.0 mm 0.00 in/hr0.0 mm/hr 0.02 in0.5 mm
11:10 AM 60.7°F15.9°C 57.1°F13.9°C 88% 1.0 mph SSE1.6 kmh SSE 12.0 mph19.3 kmh 30.04 in1017.3 mb 0.00 in0.0 mm 0.00 in/hr0.0 mm/hr 0.02 in0.5 mm
11:15 AM 60.8°F16.0°C 57.2°F14.0°C 88% 4.0 mph SE6.4 kmh SE 12.0 mph19.3 kmh 30.03 in1016.9 mb 0.00 in0.0 mm 0.00 in/hr0.0 mm/hr 0.02 in0.5 mm
11:20 AM 60.9°F16.1°C 57.3°F14.1°C 88% 11.0 mph S17.7 kmh S 11.0 mph17.7 kmh 30.03 in1016.9 mb 0.00 in0.0 mm 0.00 in/hr0.0 mm/hr 0.02 in0.5 mm
11:25 AM 61.0°F16.1°C 57.4°F14.1°C 88% 3.0 mph SE4.8 kmh SE 12.0 mph19.3 kmh 30.02 in1016.6 mb 0.00 in0.0 mm 0.00 in/hr0.0 mm/hr 0.02 in0.5 mm
11:30 AM 61.2°F16.2°C 57.6°F14.2°C 88% 3.0 mph SE4.8 kmh SE 10.0 mph16.1 kmh 30.02 in1016.6 mb 0.00 in0.0 mm 0.00 in/hr0.0 mm/hr 0.02 in0.5 mm
11:35 AM 61.4°F16.3°C 57.4°F14.1°C 87% 3.0 mph SE4.8 kmh SE 12.0 mph19.3 kmh 30.02 in1016.6 mb 0.00 in0.0 mm 0.00 in/hr0.0 mm/hr 0.02 in0.5 mm
11:40 AM 61.4°F16.3°C 57.8°F14.3°C 88% 7.0 mph SE11.3 kmh SE 9.0 mph14.5 kmh 30.02 in1016.6 mb 0.00 in0.0 mm 0.00 in/hr0.0 mm/hr 0.02 in0.5 mm
11:45 AM 61.5°F16.4°C 57.9°F14.4°C 88% 4.0 mph SE6.4 kmh SE 10.0 mph16.1 kmh 30.01 in1016.3 mb 0.00 in0.0 mm 0.00 in/hr0.0 mm/hr 0.02 in0.5 mm
11:50 AM 61.7°F16.5°C 58.1°F14.5°C 88% 2.0 mph SE3.2 kmh SE 8.0 mph12.9 kmh 30.00 in1015.9 mb 0.00 in0.0 mm 0.00 in/hr0.0 mm/hr 0.02 in0.5 mm
11:55 AM 62.0°F16.7°C 58.0°F14.4°C 87% 7.0 mph ESE11.3 kmh ESE 11.0 mph17.7 kmh 30.00 in1015.9 mb 0.00 in0.0 mm 0.00 in/hr0.0 mm/hr 0.02 in0.5 mm
12:00 PM 62.2°F16.8°C 58.2°F14.6°C 87% 2.0 mph SE3.2 kmh SE 11.0 mph17.7 kmh 30.00 in1015.9 mb 0.00 in0.0 mm 0.00 in/hr0.0 mm/hr 0.02 in0.5 mm
12:05 PM 62.2°F16.8°C 58.2°F14.6°C 87% 5.0 mph SE8.0 kmh SE 11.0 mph17.7 kmh 29.99 in1015.6 mb 0.00 in0.0 mm 0.00 in/hr0.0 mm/hr 0.02 in0.5 mm
12:10 PM 62.3°F16.8°C 58.3°F14.6°C 87% 5.0 mph SE8.0 kmh SE 9.0 mph14.5 kmh 29.98 in1015.2 mb 0.00 in0.0 mm 0.00 in/hr0.0 mm/hr 0.02 in0.5 mm
12:15 PM 62.5°F16.9°C 58.5°F14.7°C 87% 2.0 mph SE3.2 kmh SE 8.0 mph12.9 kmh 29.98 in1015.2 mb 0.00 in0.0 mm 0.00 in/hr0.0 mm/hr 0.02 in0.5 mm
12:20 PM 62.7°F17.1°C 58.7°F14.8°C 87% 2.0 mph SE3.2 kmh SE 8.0 mph12.9 kmh 29.97 in1014.9 mb 0.00 in0.0 mm 0.00 in/hr0.0 mm/hr 0.02 in0.5 mm
12:25 PM 62.9°F17.2°C 58.6°F14.8°C 86% 4.0 mph SE6.4 kmh SE 11.0 mph17.7 kmh 29.97 in1014.9 mb 0.00 in0.0 mm 0.00 in/hr0.0 mm/hr 0.02 in0.5 mm
12:30 PM 63.0°F17.2°C 58.7°F14.8°C 86% 5.0 mph ESE8.0 kmh ESE 12.0 mph19.3 kmh 29.97 in1014.9 mb 0.00 in0.0 mm 0.00 in/hr0.0 mm/hr 0.02 in0.5 mm
12:35 PM 63.2°F17.3°C 58.9°F14.9°C 86% 2.0 mph SE3.2 kmh SE 9.0 mph14.5 kmh 29.97 in1014.9 mb 0.00 in0.0 mm 0.00 in/hr0.0 mm/hr 0.02 in0.5 mm
12:40 PM 63.3°F17.4°C 58.7°F14.8°C 85% 4.0 mph SE6.4 kmh SE 13.0 mph20.9 kmh 29.96 in1014.6 mb 0.00 in0.0 mm 0.00 in/hr0.0 mm/hr 0.02 in0.5 mm
12:45 PM 63.4°F17.4°C 58.8°F14.9°C 85% 6.0 mph SE9.7 kmh SE 10.0 mph16.1 kmh 29.95 in1014.2 mb 0.00 in0.0 mm 0.00 in/hr0.0 mm/hr 0.02 in0.5 mm
12:50 PM 63.7°F17.6°C 59.1°F15.1°C 85% 4.0 mph SE6.4 kmh SE 9.0 mph14.5 kmh 29.95 in1014.2 mb 0.00 in0.0 mm 0.00 in/hr0.0 mm/hr 0.02 in0.5 mm
12:55 PM 64.0°F17.8°C 59.0°F15.0°C 84% 3.0 mph SE4.8 kmh SE 11.0 mph17.7 kmh 29.95 in1014.2 mb 0.00 in0.0 mm 0.00 in/hr0.0 mm/hr 0.02 in0.5 mm
01:00 PM 64.2°F17.9°C 59.2°F15.1°C 84% 6.0 mph SSE9.7 kmh SSE 11.0 mph17.7 kmh 29.95 in1014.2 mb 0.00 in0.0 mm 0.00 in/hr0.0 mm/hr 0.02 in0.5 mm
01:05 PM 64.2°F17.9°C 58.9°F14.9°C 83% 3.0 mph SE4.8 kmh SE 10.0 mph16.1 kmh 29.94 in1013.9 mb 0.00 in0.0 mm 0.00 in/hr0.0 mm/hr 0.02 in0.5 mm
01:10 PM 64.3°F17.9°C 59.3°F15.2°C 84% 3.0 mph SE4.8 kmh SE 10.0 mph16.1 kmh 29.95 in1014.2 mb 0.00 in0.0 mm 0.00 in/hr0.0 mm/hr 0.02 in0.5 mm
01:15 PM 64.3°F17.9°C 59.0°F15.0°C 83% 3.0 mph SE4.8 kmh SE 10.0 mph16.1 kmh 29.94 in1013.9 mb 0.00 in0.0 mm 0.00 in/hr0.0 mm/hr 0.02 in0.5 mm
01:20 PM 64.2°F17.9°C 58.9°F14.9°C 83% 6.0 mph SE9.7 kmh SE 12.0 mph19.3 kmh 29.93 in1013.5 mb 0.00 in0.0 mm 0.00 in/hr0.0 mm/hr 0.02 in0.5 mm
01:25 PM 64.1°F17.8°C 58.8°F14.9°C 83% 3.0 mph SE4.8 kmh SE 10.0 mph16.1 kmh 29.93 in1013.5 mb 0.00 in0.0 mm 0.00 in/hr0.0 mm/hr 0.02 in0.5 mm
01:30 PM 63.9°F17.7°C 58.9°F14.9°C 84% 5.0 mph SE8.0 kmh SE 8.0 mph12.9 kmh 29.92 in1013.2 mb 0.00 in0.0 mm 0.00 in/hr0.0 mm/hr 0.02 in0.5 mm
01:35 PM 63.8°F17.7°C 58.8°F14.9°C 84% 4.0 mph SE6.4 kmh SE 10.0 mph16.1 kmh 29.92 in1013.2 mb 0.00 in0.0 mm 0.00 in/hr0.0 mm/hr 0.02 in0.5 mm
01:40 PM 63.7°F17.6°C 58.7°F14.8°C 84% 3.0 mph SE4.8 kmh SE 7.0 mph11.3 kmh 29.91 in1012.9 mb 0.00 in0.0 mm 0.00 in/hr0.0 mm/hr 0.02 in0.5 mm
01:45 PM 63.7°F17.6°C 58.7°F14.8°C 84% 4.0 mph SE6.4 kmh SE 7.0 mph11.3 kmh 29.91 in1012.9 mb 0.00 in0.0 mm 0.00 in/hr0.0 mm/hr 0.02 in0.5 mm
01:50 PM 63.7°F17.6°C 59.1°F15.1°C 85% 6.0 mph SE9.7 kmh SE 9.0 mph14.5 kmh 29.90 in1012.5 mb 0.00 in0.0 mm 0.00 in/hr0.0 mm/hr 0.02 in0.5 mm
01:55 PM 63.7°F17.6°C 59.1°F15.1°C 85% 3.0 mph SE4.8 kmh SE 9.0 mph14.5 kmh 29.90 in1012.5 mb 0.00 in0.0 mm 0.00 in/hr0.0 mm/hr 0.02 in0.5 mm
02:00 PM 63.8°F17.7°C 59.1°F15.1°C 85% Calm Calm 7.0 mph11.3 kmh 29.90 in1012.5 mb 0.00 in0.0 mm 0.00 in/hr0.0 mm/hr 0.02 in0.5 mm
02:05 PM 63.9°F17.7°C 59.2°F15.1°C 85% 2.0 mph SE3.2 kmh SE 7.0 mph11.3 kmh 29.89 in1012.2 mb 0.00 in0.0 mm 0.00 in/hr0.0 mm/hr 0.02 in0.5 mm
02:10 PM 64.0°F17.8°C 59.0°F15.0°C 84% 6.0 mph SE9.7 kmh SE 12.0 mph19.3 kmh 29.89 in1012.2 mb 0.00 in0.0 mm 0.00 in/hr0.0 mm/hr 0.02 in0.5 mm
02:15 PM 64.0°F17.8°C 59.0°F15.0°C 84% 6.0 mph SE9.7 kmh SE 10.0 mph16.1 kmh 29.88 in1011.9 mb 0.00 in0.0 mm 0.00 in/hr0.0 mm/hr 0.02 in0.5 mm
02:20 PM 64.1°F17.8°C 59.1°F15.1°C 84% 1.0 mph SE1.6 kmh SE 11.0 mph17.7 kmh 29.88 in1011.9 mb 0.00 in0.0 mm 0.00 in/hr0.0 mm/hr 0.02 in0.5 mm
02:25 PM 64.2°F17.9°C 59.2°F15.1°C 84% 5.0 mph SE8.0 kmh SE 10.0 mph16.1 kmh 29.88 in1011.9 mb 0.00 in0.0 mm 0.00 in/hr0.0 mm/hr 0.02 in0.5 mm
02:30 PM 64.2°F17.9°C 59.2°F15.1°C 84% 8.0 mph SSE12.9 kmh SSE 11.0 mph17.7 kmh 29.88 in1011.9 mb 0.00 in0.0 mm 0.00 in/hr0.0 mm/hr 0.02 in0.5 mm
02:35 PM 64.3°F17.9°C 59.3°F15.2°C 84% 4.0 mph SE6.4 kmh SE 8.0 mph12.9 kmh 29.88 in1011.9 mb 0.00 in0.0 mm 0.00 in/hr0.0 mm/hr 0.02 in0.5 mm
02:40 PM 64.4°F18.0°C 59.4°F15.2°C 84% 4.0 mph SE6.4 kmh SE 8.0 mph12.9 kmh 29.89 in1012.2 mb 0.00 in0.0 mm 0.00 in/hr0.0 mm/hr 0.02 in0.5 mm
02:45 PM 64.4°F18.0°C 59.4°F15.2°C 84% 3.0 mph SE4.8 kmh SE 7.0 mph11.3 kmh 29.89 in1012.2 mb 0.00 in0.0 mm 0.00 in/hr0.0 mm/hr 0.02 in0.5 mm
02:50 PM 64.5°F18.1°C 59.5°F15.3°C 84% 2.0 mph SE3.2 kmh SE 7.0 mph11.3 kmh 29.89 in1012.2 mb 0.00 in0.0 mm 0.00 in/hr0.0 mm/hr 0.02 in0.5 mm
02:55 PM 64.5°F18.1°C 59.5°F15.3°C 84% 3.0 mph SE4.8 kmh SE 8.0 mph12.9 kmh 29.89 in1012.2 mb 0.00 in0.0 mm 0.00 in/hr0.0 mm/hr 0.02 in0.5 mm
03:00 PM 64.6°F18.1°C 59.6°F15.3°C 84% 4.0 mph SE6.4 kmh SE 8.0 mph12.9 kmh 29.90 in1012.5 mb 0.00 in0.0 mm 0.00 in/hr0.0 mm/hr 0.02 in0.5 mm
03:05 PM 64.7°F18.2°C 59.4°F15.2°C 83% 1.0 mph SE1.6 kmh SE 11.0 mph17.7 kmh 29.89 in1012.2 mb 0.00 in0.0 mm 0.00 in/hr0.0 mm/hr 0.02 in0.5 mm
03:10 PM 64.8°F18.2°C 59.5°F15.3°C 83% 7.0 mph SE11.3 kmh SE 15.0 mph24.1 kmh 29.89 in1012.2 mb 0.00 in0.0 mm 0.00 in/hr0.0 mm/hr 0.02 in0.5 mm
03:15 PM 64.7°F18.2°C 59.4°F15.2°C 83% 10.0 mph ESE16.1 kmh ESE 13.0 mph20.9 kmh 29.89 in1012.2 mb 0.00 in0.0 mm 0.00 in/hr0.0 mm/hr 0.02 in0.5 mm
03:20 PM 64.6°F18.1°C 59.3°F15.2°C 83% 9.0 mph SE14.5 kmh SE 10.0 mph16.1 kmh 29.89 in1012.2 mb 0.00 in0.0 mm 0.00 in/hr0.0 mm/hr 0.02 in0.5 mm
03:25 PM 64.3°F17.9°C 59.3°F15.2°C 84% 9.0 mph SE14.5 kmh SE 12.0 mph19.3 kmh 29.89 in1012.2 mb 0.00 in0.0 mm 0.00 in/hr0.0 mm/hr 0.02 in0.5 mm
03:30 PM 64.1°F17.8°C 59.1°F15.1°C 84% 9.0 mph SE14.5 kmh SE 14.0 mph22.5 kmh 29.88 in1011.9 mb 0.00 in0.0 mm 0.00 in/hr0.0 mm/hr 0.02 in0.5 mm
03:35 PM 64.1°F17.8°C 59.1°F15.1°C 84% 5.0 mph SSE8.0 kmh SSE 13.0 mph20.9 kmh 29.88 in1011.9 mb 0.00 in0.0 mm 0.00 in/hr0.0 mm/hr 0.02 in0.5 mm
03:40 PM 64.1°F17.8°C 59.1°F15.1°C 84% 4.0 mph SE6.4 kmh SE 9.0 mph14.5 kmh 29.88 in1011.9 mb 0.00 in0.0 mm 0.00 in/hr0.0 mm/hr 0.02 in0.5 mm
03:45 PM 64.2°F17.9°C 59.5°F15.3°C 85% 7.0 mph SSE11.3 kmh SSE 13.0 mph20.9 kmh 29.88 in1011.9 mb 0.00 in0.0 mm 0.00 in/hr0.0 mm/hr 0.02 in0.5 mm
03:50 PM 64.4°F18.0°C 59.4°F15.2°C 84% 4.0 mph SE6.4 kmh SE 17.0 mph27.4 kmh 29.88 in1011.9 mb 0.00 in0.0 mm 0.00 in/hr0.0 mm/hr 0.02 in0.5 mm
03:55 PM 64.5°F18.1°C 59.5°F15.3°C 84% 6.0 mph SE9.7 kmh SE 11.0 mph17.7 kmh 29.88 in1011.9 mb 0.00 in0.0 mm 0.00 in/hr0.0 mm/hr 0.02 in0.5 mm
04:00 PM 64.5°F18.1°C 59.5°F15.3°C 84% 8.0 mph SE12.9 kmh SE 12.0 mph19.3 kmh 29.88 in1011.9 mb 0.00 in0.0 mm 0.00 in/hr0.0 mm/hr 0.02 in0.5 mm
04:05 PM 64.4°F18.0°C 59.7°F15.4°C 85% 5.0 mph SE8.0 kmh SE 17.0 mph27.4 kmh 29.87 in1011.5 mb 0.00 in0.0 mm 0.00 in/hr0.0 mm/hr 0.02 in0.5 mm
04:10 PM 64.3°F17.9°C 59.6°F15.3°C 85% 6.0 mph SE9.7 kmh SE 12.0 mph19.3 kmh 29.87 in1011.5 mb 0.00 in0.0 mm 0.00 in/hr0.0 mm/hr 0.02 in0.5 mm
04:15 PM 64.1°F17.8°C 59.4°F15.2°C 85% 7.0 mph SE11.3 kmh SE 12.0 mph19.3 kmh 29.88 in1011.9 mb 0.00 in0.0 mm 0.00 in/hr0.0 mm/hr 0.02 in0.5 mm
04:20 PM 63.9°F17.7°C 59.2°F15.1°C 85% 8.0 mph SE12.9 kmh SE 12.0 mph19.3 kmh 29.88 in1011.9 mb 0.00 in0.0 mm 0.00 in/hr0.0 mm/hr 0.02 in0.5 mm
04:25 PM 63.6°F17.6°C 59.3°F15.2°C 86% 10.0 mph SE16.1 kmh SE 13.0 mph20.9 kmh 29.87 in1011.5 mb 0.00 in0.0 mm 0.00 in/hr0.0 mm/hr 0.02 in0.5 mm
04:30 PM 63.4°F17.4°C 59.4°F15.2°C 87% 9.0 mph ESE14.5 kmh ESE 14.0 mph22.5 kmh 29.87 in1011.5 mb 0.00 in0.0 mm 0.00 in/hr0.0 mm/hr 0.02 in0.5 mm
04:35 PM 63.3°F17.4°C 59.6°F15.3°C 88% 12.0 mph SE19.3 kmh SE 18.0 mph29.0 kmh 29.87 in1011.5 mb 0.00 in0.0 mm 0.00 in/hr0.0 mm/hr 0.02 in0.5 mm
04:40 PM 63.2°F17.3°C 59.5°F15.3°C 88% 8.0 mph SE12.9 kmh SE 12.0 mph19.3 kmh 29.88 in1011.9 mb 0.00 in0.0 mm 0.00 in/hr0.0 mm/hr 0.02 in0.5 mm
04:45 PM 63.2°F17.3°C 59.5°F15.3°C 88% 6.0 mph SE9.7 kmh SE 10.0 mph16.1 kmh 29.88 in1011.9 mb 0.00 in0.0 mm 0.00 in/hr0.0 mm/hr 0.02 in0.5 mm
04:50 PM 63.4°F17.4°C 60.0°F15.6°C 89% 6.0 mph SE9.7 kmh SE 11.0 mph17.7 kmh 29.88 in1011.9 mb 0.00 in0.0 mm 0.00 in/hr0.0 mm/hr 0.02 in0.5 mm
04:55 PM 63.4°F17.4°C 60.0°F15.6°C 89% 14.0 mph ESE22.5 kmh ESE 16.0 mph25.7 kmh 29.87 in1011.5 mb 0.00 in0.0 mm 0.00 in/hr0.0 mm/hr 0.02 in0.5 mm
05:00 PM 63.2°F17.3°C 60.2°F15.7°C 90% 8.0 mph SSE12.9 kmh SSE 15.0 mph24.1 kmh 29.87 in1011.5 mb 0.00 in0.0 mm 0.00 in/hr0.0 mm/hr 0.02 in0.5 mm
05:05 PM 63.0°F17.2°C 60.0°F15.6°C 90% 5.0 mph SE8.0 kmh SE 17.0 mph27.4 kmh 29.87 in1011.5 mb 0.01 in0.3 mm 0.12 in/hr3.0 mm/hr 0.03 in0.8 mm
05:10 PM 62.8°F17.1°C 60.1°F15.6°C 91% 7.0 mph SE11.3 kmh SE 15.0 mph24.1 kmh 29.87 in1011.5 mb 0.02 in0.5 mm 0.12 in/hr3.0 mm/hr 0.04 in1.0 mm
05:15 PM 62.7°F17.1°C 60.0°F15.6°C 91% 4.0 mph SE6.4 kmh SE 13.0 mph20.9 kmh 29.87 in1011.5 mb 0.02 in0.5 mm 0.00 in/hr0.0 mm/hr 0.04 in1.0 mm
05:20 PM 62.5°F16.9°C 60.1°F15.6°C 92% 7.0 mph ESE11.3 kmh ESE 14.0 mph22.5 kmh 29.86 in1011.2 mb 0.02 in0.5 mm 0.00 in/hr0.0 mm/hr 0.04 in1.0 mm
05:25 PM 62.2°F16.8°C 59.8°F15.4°C 92% 5.0 mph SE8.0 kmh SE 14.0 mph22.5 kmh 29.86 in1011.2 mb 0.02 in0.5 mm 0.00 in/hr0.0 mm/hr 0.04 in1.0 mm
05:30 PM 61.9°F16.6°C 59.5°F15.3°C 92% 8.0 mph SE12.9 kmh SE 9.0 mph14.5 kmh 29.86 in1011.2 mb 0.03 in0.8 mm 0.12 in/hr3.0 mm/hr 0.05 in1.3 mm
05:35 PM 61.8°F16.6°C 59.7°F15.4°C 93% 9.0 mph SE14.5 kmh SE 11.0 mph17.7 kmh 29.86 in1011.2 mb 0.04 in1.0 mm 0.12 in/hr3.0 mm/hr 0.06 in1.5 mm
05:40 PM 61.7°F16.5°C 59.6°F15.3°C 93% 6.0 mph SE9.7 kmh SE 9.0 mph14.5 kmh 29.86 in1011.2 mb 0.04 in1.0 mm 0.00 in/hr0.0 mm/hr 0.06 in1.5 mm
05:45 PM 61.7°F16.5°C 59.6°F15.3°C 93% 4.0 mph SE6.4 kmh SE 9.0 mph14.5 kmh 29.86 in1011.2 mb 0.04 in1.0 mm 0.00 in/hr0.0 mm/hr 0.06 in1.5 mm
05:50 PM 61.7°F16.5°C 59.9°F15.5°C 94% 1.0 mph SE1.6 kmh SE 8.0 mph12.9 kmh 29.86 in1011.2 mb 0.04 in1.0 mm 0.00 in/hr0.0 mm/hr 0.06 in1.5 mm
05:55 PM 61.7°F16.5°C 59.9°F15.5°C 94% 3.0 mph SE4.8 kmh SE 7.0 mph11.3 kmh 29.87 in1011.5 mb 0.04 in1.0 mm 0.00 in/hr0.0 mm/hr 0.06 in1.5 mm
06:00 PM 61.7°F16.5°C 59.9°F15.5°C 94% 1.0 mph SE1.6 kmh SE 4.0 mph6.4 kmh 29.88 in1011.9 mb 0.04 in1.0 mm 0.00 in/hr0.0 mm/hr 0.06 in1.5 mm
06:05 PM 61.6°F16.4°C 59.8°F15.4°C 94% 1.0 mph SE1.6 kmh SE 3.0 mph4.8 kmh 29.89 in1012.2 mb 0.03 in0.8 mm 0.00 in/hr0.0 mm/hr 0.06 in1.5 mm
06:10 PM 61.6°F16.4°C 59.8°F15.4°C 94% Calm Calm 3.0 mph4.8 kmh 29.89 in1012.2 mb 0.03 in0.8 mm 0.00 in/hr0.0 mm/hr 0.07 in1.8 mm
06:15 PM 61.7°F16.5°C 59.9°F15.5°C 94% Calm Calm 4.0 mph6.4 kmh 29.89 in1012.2 mb 0.03 in0.8 mm 0.00 in/hr0.0 mm/hr 0.07 in1.8 mm
06:20 PM 61.7°F16.5°C 59.9°F15.5°C 94% Calm Calm 3.0 mph4.8 kmh 29.89 in1012.2 mb 0.04 in1.0 mm 0.12 in/hr3.0 mm/hr 0.08 in2.0 mm
06:25 PM 61.7°F16.5°C 59.9°F15.5°C 94% 2.0 mph SSE3.2 kmh SSE 3.0 mph4.8 kmh 29.89 in1012.2 mb 0.04 in1.0 mm 0.00 in/hr0.0 mm/hr 0.08 in2.0 mm
06:30 PM 61.7°F16.5°C 59.9°F15.5°C 94% 1.0 mph SSE1.6 kmh SSE 4.0 mph6.4 kmh 29.89 in1012.2 mb 0.04 in1.0 mm 0.00 in/hr0.0 mm/hr 0.09 in2.3 mm
06:35 PM 61.8°F16.6°C 60.0°F15.6°C 94% Calm Calm 4.0 mph6.4 kmh 29.88 in1011.9 mb 0.04 in1.0 mm 0.00 in/hr0.0 mm/hr 0.10 in2.5 mm
06:40 PM 61.8°F16.6°C 60.3°F15.7°C 95% Calm Calm 1.0 mph1.6 kmh 29.88 in1011.9 mb 0.05 in1.3 mm 0.12 in/hr3.0 mm/hr 0.11 in2.8 mm
06:45 PM 61.8°F16.6°C 60.3°F15.7°C 95% 1.0 mph SSE1.6 kmh SSE 2.0 mph3.2 kmh 29.88 in1011.9 mb 0.05 in1.3 mm 0.00 in/hr0.0 mm/hr 0.11 in2.8 mm
06:50 PM 61.8°F16.6°C 60.3°F15.7°C 95% 2.0 mph SSE3.2 kmh SSE 2.0 mph3.2 kmh 29.89 in1012.2 mb 0.06 in1.5 mm 0.12 in/hr3.0 mm/hr 0.12 in3.0 mm
06:55 PM 61.9°F16.6°C 60.4°F15.8°C 95% Calm Calm 2.0 mph3.2 kmh 29.89 in1012.2 mb 0.06 in1.5 mm 0.00 in/hr0.0 mm/hr 0.12 in3.0 mm
07:00 PM 61.8°F16.6°C 60.3°F15.7°C 95% Calm Calm 4.0 mph6.4 kmh 29.90 in1012.5 mb 0.06 in1.5 mm 0.00 in/hr0.0 mm/hr 0.12 in3.0 mm
07:05 PM 61.9°F16.6°C 60.4°F15.8°C 95% Calm Calm 4.0 mph6.4 kmh 29.90 in1012.5 mb 0.07 in1.8 mm 0.12 in/hr3.0 mm/hr 0.13 in3.3 mm
07:10 PM 61.8°F16.6°C 60.3°F15.7°C 95% 3.0 mph SW4.8 kmh SW 5.0 mph8.0 kmh 29.90 in1012.5 mb 0.06 in1.5 mm 0.00 in/hr0.0 mm/hr 0.13 in3.3 mm
07:15 PM 61.8°F16.6°C 60.3°F15.7°C 95% 1.0 mph SW1.6 kmh SW 4.0 mph6.4 kmh 29.90 in1012.5 mb 0.07 in1.8 mm 0.12 in/hr3.0 mm/hr 0.14 in3.6 mm
07:20 PM 61.8°F16.6°C 60.3°F15.7°C 95% 2.0 mph SW3.2 kmh SW 4.0 mph6.4 kmh 29.89 in1012.2 mb 0.08 in2.0 mm 0.12 in/hr3.0 mm/hr 0.16 in4.1 mm
07:25 PM 61.8°F16.6°C 60.3°F15.7°C 95% Calm Calm 3.0 mph4.8 kmh 29.89 in1012.2 mb 0.09 in2.3 mm 0.12 in/hr3.0 mm/hr 0.17 in4.3 mm
07:30 PM 61.8°F16.6°C 60.3°F15.7°C 95% Calm Calm 2.0 mph3.2 kmh 29.89 in1012.2 mb 0.09 in2.3 mm 0.00 in/hr0.0 mm/hr 0.18 in4.6 mm
07:35 PM 61.7°F16.5°C 60.5°F15.8°C 96% Calm Calm 3.0 mph4.8 kmh 29.88 in1011.9 mb 0.09 in2.3 mm 0.00 in/hr0.0 mm/hr 0.19 in4.8 mm
07:40 PM 61.7°F16.5°C 60.5°F15.8°C 96% Calm Calm 1.0 mph1.6 kmh 29.88 in1011.9 mb 0.08 in2.0 mm 0.00 in/hr0.0 mm/hr 0.19 in4.8 mm
07:45 PM 61.7°F16.5°C 60.5°F15.8°C 96% Calm Calm -- 29.87 in1011.5 mb 0.08 in2.0 mm 0.00 in/hr0.0 mm/hr 0.19 in4.8 mm
07:50 PM 61.6°F16.4°C 60.4°F15.8°C 96% Calm Calm -- 29.86 in1011.2 mb 0.08 in2.0 mm 0.00 in/hr0.0 mm/hr 0.20 in5.1 mm
07:55 PM 61.6°F16.4°C 60.4°F15.8°C 96% Calm Calm 2.0 mph3.2 kmh 29.85 in1010.8 mb 0.08 in2.0 mm 0.00 in/hr0.0 mm/hr 0.20 in5.1 mm
08:00 PM 61.4°F16.3°C 60.2°F15.7°C 96% Calm Calm 2.0 mph3.2 kmh 29.83 in1010.2 mb 0.09 in2.3 mm 0.01 in/hr0.3 mm/hr 0.21 in5.3 mm
08:05 PM 61.4°F16.3°C 60.2°F15.7°C 96% Calm Calm 1.0 mph1.6 kmh 29.82 in1009.8 mb 0.09 in2.3 mm 0.00 in/hr0.0 mm/hr 0.22 in5.6 mm
08:10 PM 61.3°F16.3°C 60.1°F15.6°C 96% Calm Calm 1.0 mph1.6 kmh 29.80 in1009.1 mb 0.10 in2.5 mm 0.12 in/hr3.0 mm/hr 0.23 in5.8 mm
08:15 PM 61.2°F16.2°C 60.0°F15.6°C 96% 1.0 mph SW1.6 kmh SW 3.0 mph4.8 kmh 29.82 in1009.8 mb 0.09 in2.3 mm 0.00 in/hr0.0 mm/hr 0.23 in5.8 mm
08:20 PM 61.2°F16.2°C 60.0°F15.6°C 96% Calm Calm -- 29.82 in1009.8 mb 0.08 in2.0 mm 0.00 in/hr0.0 mm/hr 0.24 in6.1 mm
08:25 PM 61.1°F16.2°C 59.9°F15.5°C 96% Calm Calm 1.0 mph1.6 kmh 29.83 in1010.2 mb 0.07 in1.8 mm 0.00 in/hr0.0 mm/hr 0.24 in6.1 mm
08:30 PM 61.1°F16.2°C 59.9°F15.5°C 96% Calm Calm 3.0 mph4.8 kmh 29.82 in1009.8 mb 0.06 in1.5 mm 0.00 in/hr0.0 mm/hr 0.24 in6.1 mm
08:35 PM 61.0°F16.1°C 59.8°F15.4°C 96% 2.0 mph SW3.2 kmh SW 4.0 mph6.4 kmh 29.82 in1009.8 mb 0.05 in1.3 mm 0.00 in/hr0.0 mm/hr 0.24 in6.1 mm
08:40 PM 60.9°F16.1°C 59.7°F15.4°C 96% Calm Calm 2.0 mph3.2 kmh 29.81 in1009.5 mb 0.05 in1.3 mm 0.00 in/hr0.0 mm/hr 0.24 in6.1 mm
08:45 PM 60.8°F16.0°C 59.6°F15.3°C 96% Calm Calm -- 29.82 in1009.8 mb 0.05 in1.3 mm 0.00 in/hr0.0 mm/hr 0.24 in6.1 mm
08:50 PM 60.7°F15.9°C 59.5°F15.3°C 96% Calm Calm -- 29.83 in1010.2 mb 0.04 in1.0 mm 0.00 in/hr0.0 mm/hr 0.24 in6.1 mm
08:55 PM 60.7°F15.9°C 59.5°F15.3°C 96% Calm Calm -- 29.83 in1010.2 mb 0.04 in1.0 mm 0.00 in/hr0.0 mm/hr 0.24 in6.1 mm
09:00 PM 60.6°F15.9°C 59.4°F15.2°C 96% 1.0 mph SW1.6 kmh SW 2.0 mph3.2 kmh 29.82 in1009.8 mb 0.03 in0.8 mm 0.00 in/hr0.0 mm/hr 0.24 in6.1 mm
09:05 PM 60.6°F15.9°C 59.4°F15.2°C 96% Calm Calm 4.0 mph6.4 kmh 29.81 in1009.5 mb 0.02 in0.5 mm 0.00 in/hr0.0 mm/hr 0.24 in6.1 mm
09:10 PM 60.5°F15.8°C 59.3°F15.2°C 96% 1.0 mph SE1.6 kmh SE 5.0 mph8.0 kmh 29.80 in1009.1 mb 0.01 in0.3 mm 0.00 in/hr0.0 mm/hr 0.24 in6.1 mm
09:15 PM 60.4°F15.8°C 59.2°F15.1°C 96% 3.0 mph SE4.8 kmh SE 4.0 mph6.4 kmh 29.80 in1009.1 mb 0.01 in0.3 mm 0.00 in/hr0.0 mm/hr 0.24 in6.1 mm
09:20 PM 60.3°F15.7°C 59.1°F15.1°C 96% 3.0 mph ESE4.8 kmh ESE 7.0 mph11.3 kmh 29.79 in1008.8 mb 0.00 in0.0 mm 0.00 in/hr0.0 mm/hr 0.24 in6.1 mm
09:25 PM 60.2°F15.7°C 59.3°F15.2°C 97% 7.0 mph SE11.3 kmh SE 12.0 mph19.3 kmh 29.77 in1008.1 mb 0.00 in0.0 mm 0.00 in/hr0.0 mm/hr 0.24 in6.1 mm
09:30 PM 60.3°F15.7°C 59.4°F15.2°C 97% 7.0 mph SE11.3 kmh SE 12.0 mph19.3 kmh 29.77 in1008.1 mb 0.00 in0.0 mm 0.00 in/hr0.0 mm/hr 0.24 in6.1 mm
09:35 PM 60.4°F15.8°C 59.5°F15.3°C 97% 10.0 mph ESE16.1 kmh ESE 10.0 mph16.1 kmh 29.77 in1008.1 mb 0.00 in0.0 mm 0.00 in/hr0.0 mm/hr 0.24 in6.1 mm
09:40 PM 60.4°F15.8°C 59.5°F15.3°C 97% 4.0 mph SE6.4 kmh SE 11.0 mph17.7 kmh 29.76 in1007.8 mb 0.00 in0.0 mm 0.00 in/hr0.0 mm/hr 0.24 in6.1 mm
09:45 PM 60.4°F15.8°C 59.5°F15.3°C 97% 7.0 mph ESE11.3 kmh ESE 9.0 mph14.5 kmh 29.76 in1007.8 mb 0.00 in0.0 mm 0.00 in/hr0.0 mm/hr 0.24 in6.1 mm
09:50 PM 60.3°F15.7°C 59.4°F15.2°C 97% 5.0 mph SE8.0 kmh SE 7.0 mph11.3 kmh 29.76 in1007.8 mb 0.00 in0.0 mm 0.00 in/hr0.0 mm/hr 0.24 in6.1 mm
09:55 PM 60.2°F15.7°C 59.3°F15.2°C 97% 3.0 mph SE4.8 kmh SE 8.0 mph12.9 kmh 29.77 in1008.1 mb 0.00 in0.0 mm 0.00 in/hr0.0 mm/hr 0.24 in6.1 mm
10:00 PM 60.2°F15.7°C 59.3°F15.2°C 97% 4.0 mph SE6.4 kmh SE 6.0 mph9.7 kmh 29.76 in1007.8 mb 0.00 in0.0 mm 0.00 in/hr0.0 mm/hr 0.24 in6.1 mm
10:05 PM 60.1°F15.6°C 59.2°F15.1°C 97% 2.0 mph ESE3.2 kmh ESE 7.0 mph11.3 kmh 29.76 in1007.8 mb 0.00 in0.0 mm 0.00 in/hr0.0 mm/hr 0.24 in6.1 mm
10:10 PM 60.2°F15.7°C 59.3°F15.2°C 97% 5.0 mph ESE8.0 kmh ESE 5.0 mph8.0 kmh 29.75 in1007.5 mb 0.00 in0.0 mm 0.00 in/hr0.0 mm/hr 0.24 in6.1 mm
10:15 PM 60.2°F15.7°C 59.3°F15.2°C 97% 2.0 mph SE3.2 kmh SE 7.0 mph11.3 kmh 29.76 in1007.8 mb 0.00 in0.0 mm 0.00 in/hr0.0 mm/hr 0.24 in6.1 mm
10:20 PM 60.2°F15.7°C 59.3°F15.2°C 97% Calm Calm 3.0 mph4.8 kmh 29.76 in1007.8 mb 0.00 in0.0 mm 0.00 in/hr0.0 mm/hr 0.24 in6.1 mm
10:25 PM 60.2°F15.7°C 59.3°F15.2°C 97% Calm Calm 2.0 mph3.2 kmh 29.77 in1008.1 mb 0.00 in0.0 mm 0.00 in/hr0.0 mm/hr 0.24 in6.1 mm
10:30 PM 60.0°F15.6°C 59.1°F15.1°C 97% Calm Calm 5.0 mph8.0 kmh 29.77 in1008.1 mb 0.00 in0.0 mm 0.00 in/hr0.0 mm/hr 0.24 in6.1 mm
10:35 PM 59.9°F15.5°C 58.7°F14.8°C 96% Calm Calm -- 29.77 in1008.1 mb 0.00 in0.0 mm 0.00 in/hr0.0 mm/hr 0.24 in6.1 mm
10:40 PM 59.7°F15.4°C 58.5°F14.7°C 96% Calm Calm -- 29.77 in1008.1 mb 0.00 in0.0 mm 0.00 in/hr0.0 mm/hr 0.24 in6.1 mm
10:45 PM 59.7°F15.4°C 58.5°F14.7°C 96% Calm Calm 4.0 mph6.4 kmh 29.78 in1008.5 mb 0.00 in0.0 mm 0.00 in/hr0.0 mm/hr 0.24 in6.1 mm
10:50 PM 59.6°F15.3°C 58.7°F14.8°C 97% 1.0 mph SE1.6 kmh SE 3.0 mph4.8 kmh 29.78 in1008.5 mb 0.00 in0.0 mm 0.00 in/hr0.0 mm/hr 0.24 in6.1 mm
10:55 PM 59.6°F15.3°C 58.7°F14.8°C 97% Calm Calm 3.0 mph4.8 kmh 29.78 in1008.5 mb 0.00 in0.0 mm 0.00 in/hr0.0 mm/hr 0.24 in6.1 mm
11:00 PM 59.5°F15.3°C 58.6°F14.8°C 97% Calm Calm -- 29.78 in1008.5 mb 0.00 in0.0 mm 0.00 in/hr0.0 mm/hr 0.24 in6.1 mm
11:05 PM 59.5°F15.3°C 58.6°F14.8°C 97% Calm Calm -- 29.77 in1008.1 mb 0.00 in0.0 mm 0.00 in/hr0.0 mm/hr 0.24 in6.1 mm
11:10 PM 59.4°F15.2°C 58.5°F14.7°C 97% 2.0 mph SE3.2 kmh SE 4.0 mph6.4 kmh 29.76 in1007.8 mb 0.00 in0.0 mm 0.00 in/hr0.0 mm/hr 0.24 in6.1 mm
11:15 PM 59.4°F15.2°C 58.5°F14.7°C 97% Calm Calm 4.0 mph6.4 kmh 29.74 in1007.1 mb 0.00 in0.0 mm 0.00 in/hr0.0 mm/hr 0.24 in6.1 mm
11:20 PM 59.4°F15.2°C 58.5°F14.7°C 97% 2.0 mph SE3.2 kmh SE 4.0 mph6.4 kmh 29.74 in1007.1 mb 0.00 in0.0 mm 0.00 in/hr0.0 mm/hr 0.24 in6.1 mm
11:25 PM 59.4°F15.2°C 58.5°F14.7°C 97% Calm Calm 4.0 mph6.4 kmh 29.73 in1006.8 mb 0.00 in0.0 mm 0.00 in/hr0.0 mm/hr 0.24 in6.1 mm
11:30 PM 59.4°F15.2°C 58.5°F14.7°C 97% 4.0 mph SE6.4 kmh SE 4.0 mph6.4 kmh 29.72 in1006.4 mb 0.00 in0.0 mm 0.00 in/hr0.0 mm/hr 0.24 in6.1 mm
11:35 PM 59.3°F15.2°C 58.4°F14.7°C 97% 2.0 mph SE3.2 kmh SE 5.0 mph8.0 kmh 29.71 in1006.1 mb 0.00 in0.0 mm 0.00 in/hr0.0 mm/hr 0.24 in6.1 mm
11:40 PM 59.3°F15.2°C 58.4°F14.7°C 97% Calm Calm 4.0 mph6.4 kmh 29.71 in1006.1 mb 0.00 in0.0 mm 0.00 in/hr0.0 mm/hr 0.24 in6.1 mm
11:45 PM 59.2°F15.1°C 58.3°F14.6°C 97% Calm Calm 3.0 mph4.8 kmh 29.71 in1006.1 mb 0.00 in0.0 mm 0.00 in/hr0.0 mm/hr 0.24 in6.1 mm
11:50 PM 59.2°F15.1°C 58.3°F14.6°C 97% Calm Calm 3.0 mph4.8 kmh 29.70 in1005.8 mb 0.00 in0.0 mm 0.00 in/hr0.0 mm/hr 0.24 in6.1 mm
11:55 PM 59.1°F15.1°C 58.2°F14.6°C 97% Calm Calm 3.0 mph4.8 kmh 29.70 in1005.8 mb 0.00 in0.0 mm 0.00 in/hr0.0 mm/hr 0.24 in6.1 mm